sensor_id;sensor_type;location;lat;lon;timestamp;pressure;altitude;pressure_sealevel;temperature;humidity
46534;BME280;32260;52.008;4.752;2024-03-06T00:00:40;101875.59;;;9.98;68.72
46534;BME280;32260;52.008;4.752;2024-03-06T00:03:06;101872.97;;;9.96;68.79
46534;BME280;32260;52.008;4.752;2024-03-06T00:05:32;101880.03;;;9.97;68.79
46534;BME280;32260;52.008;4.752;2024-03-06T00:07:58;101879.13;;;9.97;68.78
46534;BME280;32260;52.008;4.752;2024-03-06T00:10:26;101887.09;;;9.95;68.94
46534;BME280;32260;52.008;4.752;2024-03-06T00:12:52;101897.69;;;9.94;69.12
46534;BME280;32260;52.008;4.752;2024-03-06T00:15:19;101894.16;;;9.93;69.09
46534;BME280;32260;52.008;4.752;2024-03-06T00:17:45;101902.97;;;9.92;69.16
46534;BME280;32260;52.008;4.752;2024-03-06T00:20:11;101896.81;;;9.93;68.89
46534;BME280;32260;52.008;4.752;2024-03-06T00:22:38;101899.44;;;9.92;69.16
46534;BME280;32260;52.008;4.752;2024-03-06T00:25:04;101899.44;;;9.92;68.80
46534;BME280;32260;52.008;4.752;2024-03-06T00:27:30;101889.75;;;9.86;68.85
46534;BME280;32260;52.008;4.752;2024-03-06T00:29:56;101898.56;;;9.83;68.92
46534;BME280;32260;52.008;4.752;2024-03-06T00:32:23;101902.06;;;9.79;69.03
46534;BME280;32260;52.008;4.752;2024-03-06T00:34:49;101906.50;;;9.76;68.63
46534;BME280;32260;52.008;4.752;2024-03-06T00:37:16;101896.78;;;9.73;68.65
46534;BME280;32260;52.008;4.752;2024-03-06T00:39:42;101910.03;;;9.71;68.90
46534;BME280;32260;52.008;4.752;2024-03-06T00:42:09;101911.81;;;9.69;68.69
46534;BME280;32260;52.008;4.752;2024-03-06T00:44:36;101908.28;;;9.66;68.87
46534;BME280;32260;52.008;4.752;2024-03-06T00:47:03;101912.66;;;9.65;68.86
46534;BME280;32260;52.008;4.752;2024-03-06T00:49:29;101909.16;;;9.66;68.86
46534;BME280;32260;52.008;4.752;2024-03-06T00:51:55;101914.44;;;9.66;69.17
46534;BME280;32260;52.008;4.752;2024-03-06T00:54:22;101918.84;;;9.67;68.79
46534;BME280;32260;52.008;4.752;2024-03-06T00:56:48;101912.69;;;9.70;68.95
46534;BME280;32260;52.008;4.752;2024-03-06T00:59:14;101920.59;;;9.71;69.00
46534;BME280;32260;52.008;4.752;2024-03-06T01:01:40;101911.81;;;9.71;68.96
46534;BME280;32260;52.008;4.752;2024-03-06T01:04:07;101917.97;;;9.71;69.17
46534;BME280;32260;52.008;4.752;2024-03-06T01:06:33;101925.91;;;9.71;69.07
46534;BME280;32260;52.008;4.752;2024-03-06T01:09:00;101923.25;;;9.73;69.06
46534;BME280;32260;52.008;4.752;2024-03-06T01:11:26;101931.22;;;9.75;68.97
46534;BME280;32260;52.008;4.752;2024-03-06T01:13:52;101937.38;;;9.77;69.05
46534;BME280;32260;52.008;4.752;2024-03-06T01:16:19;101931.19;;;9.78;69.16
46534;BME280;32260;52.008;4.752;2024-03-06T01:18:48;101926.81;;;9.80;69.05
46534;BME280;32260;52.008;4.752;2024-03-06T01:21:14;101932.94;;;9.76;69.08
46534;BME280;32260;52.008;4.752;2024-03-06T01:23:41;101931.22;;;9.76;68.86
46534;BME280;32260;52.008;4.752;2024-03-06T01:26:07;101940.03;;;9.77;68.98
46534;BME280;32260;52.008;4.752;2024-03-06T01:28:33;101925.03;;;9.77;68.93
46534;BME280;32260;52.008;4.752;2024-03-06T01:30:59;101931.19;;;9.78;68.91
46534;BME280;32260;52.008;4.752;2024-03-06T01:33:25;101932.97;;;9.79;69.11
46534;BME280;32260;52.008;4.752;2024-03-06T01:35:52;101932.97;;;9.79;69.43
46534;BME280;32260;52.008;4.752;2024-03-06T01:38:18;101938.25;;;9.79;69.26
46534;BME280;32260;52.008;4.752;2024-03-06T01:40:45;101932.97;;;9.79;69.04
46534;BME280;32260;52.008;4.752;2024-03-06T01:43:20;101939.16;;;9.81;69.01
46534;BME280;32260;52.008;4.752;2024-03-06T01:45:48;101938.25;;;9.76;68.81
46534;BME280;32260;52.008;4.752;2024-03-06T01:48:17;101943.56;;;9.73;68.78
46534;BME280;32260;52.008;4.752;2024-03-06T01:50:43;101947.06;;;9.70;68.87
46534;BME280;32260;52.008;4.752;2024-03-06T01:53:10;101951.47;;;9.66;69.04
46534;BME280;32260;52.008;4.752;2024-03-06T01:55:37;101950.59;;;9.64;69.17
46534;BME280;32260;52.008;4.752;2024-03-06T01:58:03;101945.28;;;9.63;68.99
46534;BME280;32260;52.008;4.752;2024-03-06T02:00:32;101958.53;;;9.61;68.94
46534;BME280;32260;52.008;4.752;2024-03-06T02:03:00;101961.19;;;9.61;68.82
46534;BME280;32260;52.008;4.752;2024-03-06T02:05:28;101950.56;;;9.58;69.01
46534;BME280;32260;52.008;4.752;2024-03-06T02:07:58;101962.94;;;9.59;68.84
46534;BME280;32260;52.008;4.752;2024-03-06T02:10:28;101965.56;;;9.58;68.96
46534;BME280;32260;52.008;4.752;2024-03-06T02:12:54;101959.41;;;9.54;69.19
46534;BME280;32260;52.008;4.752;2024-03-06T02:15:21;101965.56;;;9.51;69.06
46534;BME280;32260;52.008;4.752;2024-03-06T02:17:47;101960.25;;;9.47;68.97
46534;BME280;32260;52.008;4.752;2024-03-06T02:20:14;101969.06;;;9.44;69.00
46534;BME280;32260;52.008;4.752;2024-03-06T02:22:45;101959.38;;;9.42;69.20
46534;BME280;32260;52.008;4.752;2024-03-06T02:25:11;101958.47;;;9.35;69.40
46534;BME280;32260;52.008;4.752;2024-03-06T02:27:41;101958.44;;;9.30;68.96
46534;BME280;32260;52.008;4.752;2024-03-06T02:30:07;101958.44;;;9.26;69.31
46534;BME280;32260;52.008;4.752;2024-03-06T02:32:33;101962.81;;;9.19;69.25
46534;BME280;32260;52.008;4.752;2024-03-06T02:35:01;101968.09;;;9.13;69.17
46534;BME280;32260;52.008;4.752;2024-03-06T02:37:29;101966.28;;;9.05;69.04
46534;BME280;32260;52.008;4.752;2024-03-06T02:39:55;101970.66;;;9.02;68.97
46534;BME280;32260;52.008;4.752;2024-03-06T02:42:24;101972.44;;;9.01;69.54
46534;BME280;32260;52.008;4.752;2024-03-06T02:44:51;101968.91;;;8.96;69.58
46534;BME280;32260;52.008;4.752;2024-03-06T02:47:20;101975.06;;;8.94;69.22
46534;BME280;32260;52.008;4.752;2024-03-06T02:49:46;101970.66;;;8.91;69.61
46534;BME280;32260;52.008;4.752;2024-03-06T02:52:12;101969.75;;;8.92;69.31
46534;BME280;32260;52.008;4.752;2024-03-06T02:54:41;101966.22;;;8.95;69.66
46534;BME280;32260;52.008;4.752;2024-03-06T02:57:08;101975.06;;;8.95;69.43
46534;BME280;32260;52.008;4.752;2024-03-06T02:59:39;101968.03;;;8.97;69.83
46534;BME280;32260;52.008;4.752;2024-03-06T03:02:08;101966.25;;;8.99;69.99
46534;BME280;32260;52.008;4.752;2024-03-06T03:04:34;101968.91;;;8.98;69.63
46534;BME280;32260;52.008;4.752;2024-03-06T03:07:03;101971.53;;;8.98;69.91
46534;BME280;32260;52.008;4.752;2024-03-06T03:09:32;101958.31;;;8.98;69.68
46534;BME280;32260;52.008;4.752;2024-03-06T03:11:58;101960.97;;;8.96;70.01
46534;BME280;32260;52.008;4.752;2024-03-06T03:14:25;101966.25;;;8.96;70.21
46534;BME280;32260;52.008;4.752;2024-03-06T03:16:51;101968.00;;;8.94;69.68
46534;BME280;32260;52.008;4.752;2024-03-06T03:19:17;101974.19;;;8.96;69.48
46534;BME280;32260;52.008;4.752;2024-03-06T03:21:45;101975.97;;;8.97;69.83
46534;BME280;32260;52.008;4.752;2024-03-06T03:24:12;101976.81;;;8.93;69.95
46534;BME280;32260;52.008;4.752;2024-03-06T03:26:38;101975.03;;;8.92;69.93
46534;BME280;32260;52.008;4.752;2024-03-06T03:29:04;101976.81;;;8.90;69.45
46534;BME280;32260;52.008;4.752;2024-03-06T03:31:31;101983.81;;;8.88;69.99
46534;BME280;32260;52.008;4.752;2024-03-06T03:33:58;101983.81;;;8.88;69.58
46534;BME280;32260;52.008;4.752;2024-03-06T03:36:25;101983.81;;;8.85;69.94
46534;BME280;32260;52.008;4.752;2024-03-06T03:38:51;101982.91;;;8.84;69.45
46534;BME280;32260;52.008;4.752;2024-03-06T03:41:17;101991.75;;;8.85;69.39
46534;BME280;32260;52.008;4.752;2024-03-06T03:43:43;101989.97;;;8.82;69.78
46534;BME280;32260;52.008;4.752;2024-03-06T03:46:09;101989.97;;;8.84;69.65
46534;BME280;32260;52.008;4.752;2024-03-06T03:48:36;101989.13;;;8.85;69.93
46534;BME280;32260;52.008;4.752;2024-03-06T03:51:03;101997.03;;;8.85;69.69
46534;BME280;32260;52.008;4.752;2024-03-06T03:53:31;101990.84;;;8.86;69.99
46534;BME280;32260;52.008;4.752;2024-03-06T03:55:57;101996.13;;;8.86;69.78
46534;BME280;32260;52.008;4.752;2024-03-06T03:58:23;101991.75;;;8.85;69.79
46534;BME280;32260;52.008;4.752;2024-03-06T04:00:50;102000.56;;;8.84;69.90
46534;BME280;32260;52.008;4.752;2024-03-06T04:03:19;101990.84;;;8.83;70.29
46534;BME280;32260;52.008;4.752;2024-03-06T04:05:48;102000.50;;;8.79;70.11
46534;BME280;32260;52.008;4.752;2024-03-06T04:08:14;102004.03;;;8.75;70.19
46534;BME280;32260;52.008;4.752;2024-03-06T04:10:42;101999.56;;;8.69;69.85
46534;BME280;32260;52.008;4.752;2024-03-06T04:13:08;102001.31;;;8.64;69.75
46534;BME280;32260;52.008;4.752;2024-03-06T04:15:34;102003.03;;;8.59;70.07
46534;BME280;32260;52.008;4.752;2024-03-06T04:18:01;102005.59;;;8.50;69.53
46534;BME280;32260;52.008;4.752;2024-03-06T04:20:27;102010.78;;;8.42;69.86
46534;BME280;32260;52.008;4.752;2024-03-06T04:22:53;102001.03;;;8.33;69.94
46534;BME280;32260;52.008;4.752;2024-03-06T04:25:20;102006.28;;;8.27;69.30
46534;BME280;32260;52.008;4.752;2024-03-06T04:27:46;102000.94;;;8.21;69.46
46534;BME280;32260;52.008;4.752;2024-03-06T04:30:12;102007.94;;;8.14;69.92
46534;BME280;32260;52.008;4.752;2024-03-06T04:32:38;102002.59;;;8.09;70.01
46534;BME280;32260;52.008;4.752;2024-03-06T04:35:08;102012.25;;;8.06;69.96
46534;BME280;32260;52.008;4.752;2024-03-06T04:37:35;102017.47;;;8.00;69.75
46534;BME280;32260;52.008;4.752;2024-03-06T04:40:03;102021.81;;;7.96;69.35
46534;BME280;32260;52.008;4.752;2024-03-06T04:42:34;102024.41;;;7.90;69.67
46534;BME280;32260;52.008;4.752;2024-03-06T04:45:02;102017.31;;;7.83;69.28
46534;BME280;32260;52.008;4.752;2024-03-06T04:47:29;102030.44;;;7.76;69.41
46534;BME280;32260;52.008;4.752;2024-03-06T04:49:57;102032.09;;;7.68;70.17
46534;BME280;32260;52.008;4.752;2024-03-06T04:52:24;102032.03;;;7.62;69.52
46534;BME280;32260;52.008;4.752;2024-03-06T04:54:50;102035.53;;;7.58;69.87
46534;BME280;32260;52.008;4.752;2024-03-06T04:57:16;102044.25;;;7.54;69.57
46534;BME280;32260;52.008;4.752;2024-03-06T04:59:42;102037.16;;;7.50;69.74
46534;BME280;32260;52.008;4.752;2024-03-06T05:02:08;102049.44;;;7.46;69.91
46534;BME280;32260;52.008;4.752;2024-03-06T05:04:35;102047.63;;;7.42;69.76
46534;BME280;32260;52.008;4.752;2024-03-06T05:07:01;102046.69;;;7.38;69.99
46534;BME280;32260;52.008;4.752;2024-03-06T05:09:27;102053.75;;;7.38;70.43
46534;BME280;32260;52.008;4.752;2024-03-06T05:11:53;102047.56;;;7.37;70.15
46534;BME280;32260;52.008;4.752;2024-03-06T05:14:19;102058.09;;;7.37;70.44
46534;BME280;32260;52.008;4.752;2024-03-06T05:16:46;102056.38;;;7.39;70.70
46534;BME280;32260;52.008;4.752;2024-03-06T05:19:12;102056.38;;;7.39;70.59
46534;BME280;32260;52.008;4.752;2024-03-06T05:21:38;102051.97;;;7.40;70.28
46534;BME280;32260;52.008;4.752;2024-03-06T05:24:04;102058.13;;;7.39;70.66
46534;BME280;32260;52.008;4.752;2024-03-06T05:26:30;102059.88;;;7.38;70.43
46534;BME280;32260;52.008;4.752;2024-03-06T05:28:57;102059.88;;;7.38;71.03
46534;BME280;32260;52.008;4.752;2024-03-06T05:31:23;102066.00;;;7.37;70.88
46534;BME280;32260;52.008;4.752;2024-03-06T05:33:50;102072.19;;;7.38;70.64
46534;BME280;32260;52.008;4.752;2024-03-06T05:36:16;102068.66;;;7.37;70.73
46534;BME280;32260;52.008;4.752;2024-03-06T05:38:44;102071.28;;;7.37;71.04
46534;BME280;32260;52.008;4.752;2024-03-06T05:41:10;102080.97;;;7.38;71.20
46534;BME280;32260;52.008;4.752;2024-03-06T05:43:36;102078.31;;;7.35;70.66
46534;BME280;32260;52.008;4.752;2024-03-06T05:46:03;102090.56;;;7.32;70.65
46534;BME280;32260;52.008;4.752;2024-03-06T05:48:30;102093.13;;;7.27;71.50
46534;BME280;32260;52.008;4.752;2024-03-06T05:50:56;102094.81;;;7.22;71.09
46534;BME280;32260;52.008;4.752;2024-03-06T05:53:23;102096.47;;;7.15;71.14
46534;BME280;32260;52.008;4.752;2024-03-06T05:55:49;102103.44;;;7.11;71.38
46534;BME280;32260;52.008;4.752;2024-03-06T05:58:15;102098.09;;;7.05;70.99
46534;BME280;32260;52.008;4.752;2024-03-06T06:00:42;102106.81;;;7.03;71.38
46534;BME280;32260;52.008;4.752;2024-03-06T06:03:09;102105.84;;;6.96;71.23
46534;BME280;32260;52.008;4.752;2024-03-06T06:05:39;102113.75;;;6.96;71.00
46534;BME280;32260;52.008;4.752;2024-03-06T06:08:06;102120.72;;;6.91;71.08
46534;BME280;32260;52.008;4.752;2024-03-06T06:10:33;102122.44;;;6.89;71.26
46534;BME280;32260;52.008;4.752;2024-03-06T06:12:59;102130.31;;;6.87;71.24
46534;BME280;32260;52.008;4.752;2024-03-06T06:15:25;102130.31;;;6.87;71.40
46534;BME280;32260;52.008;4.752;2024-03-06T06:17:51;102129.47;;;6.90;71.48
46534;BME280;32260;52.008;4.752;2024-03-06T06:20:18;102130.34;;;6.89;71.97
46534;BME280;32260;52.008;4.752;2024-03-06T06:22:44;102138.22;;;6.87;71.79
46534;BME280;32260;52.008;4.752;2024-03-06T06:25:11;102137.38;;;6.88;71.61
46534;BME280;32260;52.008;4.752;2024-03-06T06:27:38;102142.63;;;6.88;71.36
46534;BME280;32260;52.008;4.752;2024-03-06T06:30:05;102143.50;;;6.89;71.74
46534;BME280;32260;52.008;4.752;2024-03-06T06:32:32;102148.84;;;6.92;71.73
46534;BME280;32260;52.008;4.752;2024-03-06T06:34:58;102157.59;;;6.91;72.11
46534;BME280;32260;52.008;4.752;2024-03-06T06:37:24;102154.13;;;6.93;71.77
46534;BME280;32260;52.008;4.752;2024-03-06T06:39:51;102158.63;;;6.99;72.32
46534;BME280;32260;52.008;4.752;2024-03-06T06:42:17;102166.56;;;7.02;71.94
46534;BME280;32260;52.008;4.752;2024-03-06T06:44:43;102172.75;;;7.04;72.31
46534;BME280;32260;52.008;4.752;2024-03-06T06:47:09;102169.31;;;7.10;72.39
46534;BME280;32260;52.008;4.752;2024-03-06T06:49:35;102181.66;;;7.12;72.37
46534;BME280;32260;52.008;4.752;2024-03-06T06:52:01;102181.72;;;7.17;71.96
46534;BME280;32260;52.008;4.752;2024-03-06T06:54:28;102188.78;;;7.18;72.38
46534;BME280;32260;52.008;4.752;2024-03-06T06:56:54;102187.94;;;7.21;71.99
46534;BME280;32260;52.008;4.752;2024-03-06T06:59:20;102196.78;;;7.23;72.64
46534;BME280;32260;52.008;4.752;2024-03-06T07:01:48;102192.44;;;7.26;72.33
46534;BME280;32260;52.008;4.752;2024-03-06T07:04:14;102202.16;;;7.29;72.00
46534;BME280;32260;52.008;4.752;2024-03-06T07:06:42;102198.63;;;7.30;72.22
46534;BME280;32260;52.008;4.752;2024-03-06T07:09:08;102205.69;;;7.33;71.92
46534;BME280;32260;52.008;4.752;2024-03-06T07:11:35;102211.88;;;7.33;72.23
46534;BME280;32260;52.008;4.752;2024-03-06T07:14:01;102212.78;;;7.35;72.04
46534;BME280;32260;52.008;4.752;2024-03-06T07:16:27;102207.53;;;7.37;71.99
46534;BME280;32260;52.008;4.752;2024-03-06T07:18:54;102220.75;;;7.40;72.28
46534;BME280;32260;52.008;4.752;2024-03-06T07:21:20;102216.47;;;7.47;72.33
46534;BME280;32260;52.008;4.752;2024-03-06T07:23:46;102218.28;;;7.51;71.76
46534;BME280;32260;52.008;4.752;2024-03-06T07:26:12;102235.03;;;7.54;72.56
46534;BME280;32260;52.008;4.752;2024-03-06T07:28:38;102228.91;;;7.57;72.27
46534;BME280;32260;52.008;4.752;2024-03-06T07:31:04;102225.44;;;7.61;72.59
46534;BME280;32260;52.008;4.752;2024-03-06T07:33:31;102229.97;;;7.70;72.60
46534;BME280;32260;52.008;4.752;2024-03-06T07:36:00;102226.63;;;7.80;72.44
46534;BME280;32260;52.008;4.752;2024-03-06T07:38:26;102232.81;;;7.84;72.65
46534;BME280;32260;52.008;4.752;2024-03-06T07:40:52;102234.72;;;7.94;72.63
46534;BME280;32260;52.008;4.752;2024-03-06T07:43:19;102240.03;;;7.97;73.08
46534;BME280;32260;52.008;4.752;2024-03-06T07:45:45;102248.97;;;8.08;73.05
46534;BME280;32260;52.008;4.752;2024-03-06T07:48:13;102244.63;;;8.14;73.10
46534;BME280;32260;52.008;4.752;2024-03-06T07:50:39;102245.59;;;8.19;72.98
46534;BME280;32260;52.008;4.752;2024-03-06T07:53:06;102250.06;;;8.26;72.66
46534;BME280;32260;52.008;4.752;2024-03-06T07:55:32;102247.50;;;8.32;72.53
46534;BME280;32260;52.008;4.752;2024-03-06T07:57:58;102246.78;;;8.44;72.62
46534;BME280;32260;52.008;4.752;2024-03-06T08:00:24;102249.53;;;8.53;73.11
46534;BME280;32260;52.008;4.752;2024-03-06T08:02:50;102256.72;;;8.64;72.68
46534;BME280;32260;52.008;4.752;2024-03-06T08:05:17;102255.94;;;8.74;72.95
46534;BME280;32260;52.008;4.752;2024-03-06T08:07:44;102265.78;;;8.89;72.26
46534;BME280;32260;52.008;4.752;2024-03-06T08:10:13;102268.47;;;8.95;72.83
46534;BME280;32260;52.008;4.752;2024-03-06T08:12:41;102272.09;;;9.05;72.73
46534;BME280;32260;52.008;4.752;2024-03-06T08:15:10;102264.22;;;9.13;72.67
46534;BME280;32260;52.008;4.752;2024-03-06T08:17:38;102263.44;;;9.23;72.44
46534;BME280;32260;52.008;4.752;2024-03-06T08:20:05;102274.06;;;9.29;72.02
46534;BME280;32260;52.008;4.752;2024-03-06T08:22:35;102272.31;;;9.31;71.96
46534;BME280;32260;52.008;4.752;2024-03-06T08:27:42;102291.72;;;9.32;71.85
46534;BME280;32260;52.008;4.752;2024-03-06T08:30:09;102287.34;;;9.35;71.99
46534;BME280;32260;52.008;4.752;2024-03-06T08:32:36;102288.25;;;9.39;71.86
46534;BME280;32260;52.008;4.752;2024-03-06T08:35:05;102290.06;;;9.46;71.84
46534;BME280;32260;52.008;4.752;2024-03-06T08:37:33;102296.28;;;9.53;71.90
46534;BME280;32260;52.008;4.752;2024-03-06T08:40:00;102301.63;;;9.59;72.07
46534;BME280;32260;52.008;4.752;2024-03-06T08:42:27;102301.72;;;9.71;71.79
46534;BME280;32260;52.008;4.752;2024-03-06T08:44:54;102307.97;;;9.81;71.76
46534;BME280;32260;52.008;4.752;2024-03-06T08:47:20;102310.69;;;9.94;71.66
46534;BME280;32260;52.008;4.752;2024-03-06T08:49:46;102306.34;;;10.05;71.50
46534;BME280;32260;52.008;4.752;2024-03-06T08:52:13;102303.75;;;10.16;71.26
46534;BME280;32260;52.008;4.752;2024-03-06T08:54:40;102306.47;;;10.28;71.77
46534;BME280;32260;52.008;4.752;2024-03-06T08:57:07;102310.09;;;10.38;71.02
46534;BME280;32260;52.008;4.752;2024-03-06T08:59:34;102310.13;;;10.49;71.21
46534;BME280;32260;52.008;4.752;2024-03-06T09:02:13;102309.31;;;10.68;71.22
46534;BME280;32260;52.008;4.752;2024-03-06T09:04:42;102317.28;;;10.75;70.96
46534;BME280;32260;52.008;4.752;2024-03-06T09:07:09;102311.13;;;10.85;70.97
46534;BME280;32260;52.008;4.752;2024-03-06T09:09:35;102312.94;;;10.95;71.14
46534;BME280;32260;52.008;4.752;2024-03-06T09:12:04;102320.03;;;11.12;71.07
46534;BME280;32260;52.008;4.752;2024-03-06T09:14:32;102321.78;;;11.28;70.58
46534;BME280;32260;52.008;4.752;2024-03-06T09:16:58;102321.78;;;11.44;70.65
46534;BME280;32260;52.008;4.752;2024-03-06T09:19:24;102316.47;;;11.56;70.54
46534;BME280;32260;52.008;4.752;2024-03-06T09:21:50;102321.78;;;11.69;71.04
46534;BME280;32260;52.008;4.752;2024-03-06T09:24:16;102321.78;;;11.78;70.27
46534;BME280;32260;52.008;4.752;2024-03-06T09:26:43;102324.44;;;11.84;69.92
46534;BME280;32260;52.008;4.752;2024-03-06T09:29:10;102324.44;;;11.90;70.16
46534;BME280;32260;52.008;4.752;2024-03-06T09:31:36;102327.13;;;11.96;68.96
46534;BME280;32260;52.008;4.752;2024-03-06T09:34:03;102330.63;;;12.02;69.39
46534;BME280;32260;52.008;4.752;2024-03-06T09:36:29;102329.72;;;12.07;68.20
46534;BME280;32260;52.008;4.752;2024-03-06T09:38:56;102338.56;;;12.11;67.70
46534;BME280;32260;52.008;4.752;2024-03-06T09:41:22;102337.69;;;12.12;67.08
46534;BME280;32260;52.008;4.752;2024-03-06T09:43:49;102336.81;;;12.18;66.60
46534;BME280;32260;52.008;4.752;2024-03-06T09:46:15;102348.31;;;12.21;66.26
46534;BME280;32260;52.008;4.752;2024-03-06T09:48:46;102345.59;;;12.32;66.85
46534;BME280;32260;52.008;4.752;2024-03-06T09:51:13;102341.16;;;12.36;67.48
46534;BME280;32260;52.008;4.752;2024-03-06T09:53:40;102347.34;;;12.44;67.08
46534;BME280;32260;52.008;4.752;2024-03-06T09:56:08;102350.88;;;12.49;66.63
46534;BME280;32260;52.008;4.752;2024-03-06T09:58:35;102355.28;;;12.53;65.54
46534;BME280;32260;52.008;4.752;2024-03-06T10:01:02;102357.94;;;12.52;64.91
46534;BME280;32260;52.008;4.752;2024-03-06T10:03:33;102356.16;;;12.57;64.74
46534;BME280;32260;52.008;4.752;2024-03-06T10:06:00;102362.34;;;12.64;64.71
46534;BME280;32260;52.008;4.752;2024-03-06T10:08:26;102364.94;;;12.73;65.07
46534;BME280;32260;52.008;4.752;2024-03-06T10:10:54;102364.03;;;12.82;65.06
46534;BME280;32260;52.008;4.752;2024-03-06T10:13:24;102356.88;;;12.93;64.84
46534;BME280;32260;52.008;4.752;2024-03-06T10:16:06;102363.88;;;13.08;65.11
46534;BME280;32260;52.008;4.752;2024-03-06T10:18:34;102360.41;;;13.00;63.16
46534;BME280;32260;52.008;4.752;2024-03-06T10:21:01;102363.00;;;13.04;63.19
46534;BME280;32260;52.008;4.752;2024-03-06T10:23:27;102360.31;;;13.09;62.89
46534;BME280;32260;52.008;4.752;2024-03-06T10:25:55;102360.31;;;13.09;62.02
46534;BME280;32260;52.008;4.752;2024-03-06T10:28:23;102365.56;;;13.21;61.99
46534;BME280;32260;52.008;4.752;2024-03-06T10:30:50;102364.63;;;13.30;62.66
46534;BME280;32260;52.008;4.752;2024-03-06T10:33:18;102363.72;;;13.33;61.29
46534;BME280;32260;52.008;4.752;2024-03-06T10:35:46;102370.75;;;13.46;61.74
46534;BME280;32260;52.008;4.752;2024-03-06T10:38:14;102364.44;;;13.59;61.24
46534;BME280;32260;52.008;4.752;2024-03-06T10:40:42;102368.78;;;13.70;61.08
46534;BME280;32260;52.008;4.752;2024-03-06T10:43:09;102369.63;;;13.75;59.10
46534;BME280;32260;52.008;4.752;2024-03-06T10:48:20;102369.53;;;13.86;59.35
46534;BME280;32260;52.008;4.752;2024-03-06T10:50:48;102376.50;;;14.01;59.28
46534;BME280;32260;52.008;4.752;2024-03-06T10:53:16;102383.44;;;14.17;57.54
46534;BME280;32260;52.008;4.752;2024-03-06T10:55:44;102387.69;;;14.35;59.42
46534;BME280;32260;52.008;4.752;2024-03-06T10:58:12;102386.56;;;14.55;58.64
46534;BME280;32260;52.008;4.752;2024-03-06T11:03:17;102376.25;;;15.00;55.57
46534;BME280;32260;52.008;4.752;2024-03-06T11:05:44;102384.13;;;15.10;56.56
46534;BME280;32260;52.008;4.752;2024-03-06T11:08:15;102382.28;;;15.13;57.26
46534;BME280;32260;52.008;4.752;2024-03-06T11:10:43;102388.41;;;15.22;57.26
46534;BME280;32260;52.008;4.752;2024-03-06T11:13:24;102382.72;;;15.43;56.90
46534;BME280;32260;52.008;4.752;2024-03-06T11:15:53;102395.31;;;15.35;56.35
46534;BME280;32260;52.008;4.752;2024-03-06T11:26:59;102399.44;;;14.97;56.92
46534;BME280;32260;52.008;4.752;2024-03-06T11:30:02;102402.03;;;15.00;55.36
46534;BME280;32260;52.008;4.752;2024-03-06T11:32:17;102403.03;;;14.93;56.05
46534;BME280;32260;52.008;4.752;2024-03-06T11:34:43;102400.34;;;14.93;54.90
46534;BME280;32260;52.008;4.752;2024-03-06T11:37:09;102411.00;;;14.96;55.60
46534;BME280;32260;52.008;4.752;2024-03-06T11:39:37;102410.06;;;15.00;55.60
46534;BME280;32260;52.008;4.752;2024-03-06T11:42:04;102410.03;;;15.01;55.26
46534;BME280;32260;52.008;4.752;2024-03-06T11:44:34;102413.69;;;14.93;54.79
46534;BME280;32260;52.008;4.752;2024-03-06T11:47:04;102412.03;;;14.85;55.83
46534;BME280;32260;52.008;4.752;2024-03-06T11:49:32;102412.91;;;14.86;55.43
46534;BME280;32260;52.008;4.752;2024-03-06T11:52:04;102419.00;;;14.96;57.05
46534;BME280;32260;52.008;4.752;2024-03-06T11:54:32;102415.44;;;14.97;55.64
46534;BME280;32260;52.008;4.752;2024-03-06T11:57:01;102419.88;;;14.96;54.93
46534;BME280;32260;52.008;4.752;2024-03-06T12:02:07;102420.25;;;14.65;54.57
46534;BME280;32260;52.008;4.752;2024-03-06T12:04:34;102414.06;;;14.60;55.51
46534;BME280;32260;52.008;4.752;2024-03-06T12:07:03;102424.69;;;14.66;55.83
46534;BME280;32260;52.008;4.752;2024-03-06T12:09:34;102414.84;;;14.71;55.41
46534;BME280;32260;52.008;4.752;2024-03-06T12:12:00;102420.16;;;14.75;53.92
46534;BME280;32260;52.008;4.752;2024-03-06T12:14:28;102419.25;;;14.74;55.13
46534;BME280;32260;52.008;4.752;2024-03-06T12:16:58;102415.78;;;14.69;55.34
46534;BME280;32260;52.008;4.752;2024-03-06T12:19:26;102416.47;;;14.85;55.62
46534;BME280;32260;52.008;4.752;2024-03-06T12:21:54;102415.31;;;15.06;54.49
46534;BME280;32260;52.008;4.752;2024-03-06T12:24:20;102412.25;;;15.32;53.25
46534;BME280;32260;52.008;4.752;2024-03-06T12:26:57;102417.38;;;15.49;53.51
46534;BME280;32260;52.008;4.752;2024-03-06T12:29:23;102419.81;;;15.63;53.12
46534;BME280;32260;52.008;4.752;2024-03-06T12:31:53;102413.44;;;15.72;52.96
46534;BME280;32260;52.008;4.752;2024-03-06T12:34:19;102409.00;;;15.71;52.31
46534;BME280;32260;52.008;4.752;2024-03-06T12:36:46;102410.09;;;15.59;51.71
46534;BME280;32260;52.008;4.752;2024-03-06T12:39:15;102408.25;;;15.63;53.57
46534;BME280;32260;52.008;4.752;2024-03-06T12:41:47;102409.19;;;15.59;52.01
46534;BME280;32260;52.008;4.752;2024-03-06T12:44:13;102414.53;;;15.59;51.91
46534;BME280;32260;52.008;4.752;2024-03-06T12:46:41;102419.63;;;15.76;52.43
46534;BME280;32260;52.008;4.752;2024-03-06T12:49:07;102417.75;;;15.82;50.87
46534;BME280;32260;52.008;4.752;2024-03-06T12:51:34;102417.53;;;15.95;51.09
46534;BME280;32260;52.008;4.752;2024-03-06T12:54:01;102415.50;;;16.09;50.78
46534;BME280;32260;52.008;4.752;2024-03-06T12:56:27;102414.38;;;16.21;50.70
46534;BME280;32260;52.008;4.752;2024-03-06T12:58:53;102416.94;;;16.29;50.43
46534;BME280;32260;52.008;4.752;2024-03-06T13:01:19;102421.34;;;16.31;51.73
46534;BME280;32260;52.008;4.752;2024-03-06T13:03:46;102410.97;;;16.14;51.22
46534;BME280;32260;52.008;4.752;2024-03-06T13:06:12;102416.47;;;16.05;50.59
46534;BME280;32260;52.008;4.752;2024-03-06T13:08:38;102413.69;;;16.11;51.74
46534;BME280;32260;52.008;4.752;2024-03-06T13:11:04;102407.34;;;16.17;51.70
46534;BME280;32260;52.008;4.752;2024-03-06T13:13:31;102408.34;;;16.11;51.17
46534;BME280;32260;52.008;4.752;2024-03-06T13:15:59;102412.81;;;16.11;51.60